Time;durP1;ratioP1;P1;durP2;ratioP2;P2;SDS_P1;SDS_P2;PMS_P1;PMS_P2;Temp;Humidity;BMP_temperature;BMP_pressure;BME280_temperature;BME280_humidity;BME280_pressure;Samples;Min_cycle;Max_cycle;Signal;HPM_P1;HPM_P2
2022/07/21 00:00:41;;;;;;;5.93;2.10;;;;;;;24.78;39.18;100075.97;4395436;32;33903;-83
2022/07/21 00:03:09;;;;;;;3.25;1.40;;;;;;;24.60;38.90;100064.28;4401181;32;33623;-83
2022/07/21 00:05:37;;;;;;;4.68;1.50;;;;;;;24.65;38.99;100078.19;4415161;32;33957;-83
2022/07/21 00:08:05;;;;;;;6.80;2.00;;;;;;;24.71;39.27;100072.19;4403598;32;34036;-83
2022/07/21 00:10:33;;;;;;;2.33;1.42;;;;;;;24.53;39.84;100074.81;4401827;32;33054;-83
2022/07/21 00:13:02;;;;;;;4.82;1.52;;;;;;;24.53;39.92;100072.13;4402866;32;33337;-83
2022/07/21 00:15:30;;;;;;;2.58;1.80;;;;;;;24.10;40.49;100078.09;4399837;32;34683;-84
2022/07/21 00:17:59;;;;;;;4.37;2.00;;;;;;;24.49;39.97;100078.81;4402984;32;33745;-84
2022/07/21 00:20:30;;;;;;;6.03;2.20;;;;;;;24.32;40.25;100079.59;4415188;32;33790;-83
2022/07/21 00:22:57;;;;;;;4.28;1.60;;;;;;;24.24;40.47;100080.31;4418012;32;33457;-83
2022/07/21 00:25:26;;;;;;;5.57;2.35;;;;;;;24.19;40.12;100082.62;4400817;32;34834;-83
2022/07/21 00:28:02;;;;;;;7.57;2.65;;;;;;;23.92;40.19;100078.00;4411565;32;33720;-83
2022/07/21 00:30:31;;;;;;;2.37;1.80;;;;;;;23.89;40.29;100075.63;4397531;32;34857;-84
2022/07/21 00:32:59;;;;;;;2.75;1.60;;;;;;;24.41;39.07;100076.03;4401496;32;34395;-83
2022/07/21 00:35:27;;;;;;;6.05;1.85;;;;;;;24.24;39.57;100074.09;4395067;32;33948;-83
2022/07/21 00:37:55;;;;;;;3.03;2.05;;;;;;;24.10;40.20;100078.09;4401184;32;34241;-84
2022/07/21 00:40:23;;;;;;;3.00;1.40;;;;;;;24.15;39.32;100078.50;4414699;32;33833;-83
2022/07/21 00:42:51;;;;;;;5.37;1.58;;;;;;;24.31;38.99;100079.72;4417141;32;32450;-83
2022/07/21 00:45:19;;;;;;;5.68;2.30;;;;;;;24.52;38.86;100072.28;4401066;32;34383;-84
2022/07/21 00:47:51;;;;;;;1.75;1.40;;;;;;;24.45;39.22;100073.88;4400902;32;34028;-84
2022/07/21 00:50:20;;;;;;;3.72;1.65;;;;;;;24.38;39.10;100080.87;4415926;32;33352;-85
2022/07/21 00:52:48;;;;;;;2.30;1.73;;;;;;;24.44;38.95;100080.28;4394744;32;33535;-84
2022/07/21 00:55:18;;;;;;;6.10;1.77;;;;;;;24.16;39.68;100085.59;4395816;32;33973;-84
2022/07/21 00:57:47;;;;;;;3.15;1.67;;;;;;;24.10;39.11;100083.50;4402252;32;33454;-84
2022/07/21 01:00:18;;;;;;;5.32;1.52;;;;;;;23.90;39.94;100074.63;4396881;32;33521;-83
2022/07/21 01:02:48;;;;;;;2.80;1.58;;;;;;;23.92;39.89;100075.31;4403717;32;33160;-83
2022/07/21 01:05:17;;;;;;;4.05;1.92;;;;;;;23.98;39.79;100079.28;4417258;32;33128;-83
2022/07/21 01:07:46;;;;;;;2.12;1.55;;;;;;;23.94;39.91;100073.34;4415175;32;33382;-83
2022/07/21 01:10:15;;;;;;;4.15;2.12;;;;;;;23.91;40.10;100078.16;4402429;32;33854;-83
2022/07/21 01:12:44;;;;;;;2.10;1.60;;;;;;;24.26;39.97;100077.50;4402155;32;32680;-84
2022/07/21 01:15:13;;;;;;;5.20;1.77;;;;;;;23.82;40.97;100076.34;4421954;32;34141;-84
2022/07/21 01:17:41;;;;;;;2.50;1.50;;;;;;;24.08;40.40;100079.28;4393172;32;33676;-83
2022/07/21 01:20:15;;;;;;;6.28;1.83;;;;;;;23.73;41.21;100080.75;4400051;32;34070;-84
2022/07/21 01:22:46;;;;;;;3.67;1.80;;;;;;;23.88;40.63;100081.13;4402111;32;33712;-86
2022/07/21 01:25:14;;;;;;;2.78;1.58;;;;;;;23.82;40.89;100079.88;4415174;32;34914;-86
2022/07/21 01:27:44;;;;;;;6.15;2.08;;;;;;;23.84;40.85;100077.91;4400621;32;34171;-84
2022/07/21 01:30:13;;;;;;;2.37;1.35;;;;;;;23.93;40.89;100074.34;4421330;32;34208;-84
2022/07/21 01:32:41;;;;;;;2.10;1.50;;;;;;;23.90;41.17;100071.06;4403660;32;32778;-83
2022/07/21 01:35:12;;;;;;;6.28;1.90;;;;;;;23.80;41.35;100073.78;4416307;32;33528;-84
2022/07/21 01:37:44;;;;;;;5.75;2.58;;;;;;;23.95;41.05;100076.88;4403998;32;33403;-84
2022/07/21 01:43:00;;;;;;;6.37;1.73;;;;;;;23.90;40.84;100076.47;4399283;32;33564;-86
2022/07/21 01:45:29;;;;;;;2.17;1.87;;;;;;;23.79;40.98;100068.56;4400675;32;34779;-86
2022/07/21 01:47:58;;;;;;;3.28;2.03;;;;;;;23.74;41.74;100077.09;4397761;32;34226;-86
2022/07/21 01:50:27;;;;;;;2.55;1.75;;;;;;;23.74;41.62;100067.16;4403597;32;36044;-86
2022/07/21 01:52:56;;;;;;;3.83;1.85;;;;;;;23.70;41.88;100067.59;4382667;32;582135;-85
2022/07/21 01:55:25;;;;;;;4.20;1.95;;;;;;;23.78;41.72;100067.69;4408399;32;33271;-84
2022/07/21 01:57:53;;;;;;;4.35;1.95;;;;;;;23.71;42.23;100064.72;4393783;32;33148;-85
2022/07/21 02:00:21;;;;;;;3.95;1.70;;;;;;;23.63;42.96;100074.50;4414012;32;33546;-85
2022/07/21 02:02:50;;;;;;;2.05;1.65;;;;;;;23.43;43.01;100076.38;4416154;32;33571;-85
2022/07/21 02:05:18;;;;;;;4.72;1.92;;;;;;;23.44;42.79;100068.13;4405418;32;33831;-83
2022/07/21 02:07:45;;;;;;;3.70;1.70;;;;;;;23.37;42.69;100080.47;4413780;32;34167;-83
2022/07/21 02:10:13;;;;;;;5.32;2.15;;;;;;;23.31;43.21;100080.19;4401315;32;34174;-83
2022/07/21 02:12:41;;;;;;;3.53;2.03;;;;;;;23.13;43.47;100075.53;4403398;32;33107;-84
2022/07/21 02:15:10;;;;;;;4.97;1.98;;;;;;;23.33;43.08;100075.53;4414640;32;33940;-84
2022/07/21 02:17:38;;;;;;;3.08;1.85;;;;;;;23.32;43.25;100071.97;4412734;32;33878;-84
2022/07/21 02:20:06;;;;;;;2.08;1.73;;;;;;;23.35;43.65;100073.53;4400590;32;34151;-84
2022/07/21 02:22:33;;;;;;;4.47;1.95;;;;;;;23.25;44.11;100071.69;4413368;32;33326;-84
2022/07/21 02:25:01;;;;;;;2.25;1.95;;;;;;;23.24;44.18;100080.75;4402684;32;34656;-84
2022/07/21 02:27:29;;;;;;;4.45;1.73;;;;;;;23.33;43.76;100083.59;4402548;32;33315;-83
2022/07/21 02:29:57;;;;;;;3.40;2.03;;;;;;;23.17;44.51;100086.88;4408409;32;33619;-83
2022/07/21 02:32:25;;;;;;;3.55;1.75;;;;;;;23.24;44.28;100080.75;4415677;32;34348;-84
2022/07/21 02:34:52;;;;;;;5.60;2.33;;;;;;;23.02;44.88;100086.41;4415180;32;33672;-83
2022/07/21 02:37:20;;;;;;;5.82;2.15;;;;;;;23.10;44.65;100091.94;4401479;32;32823;-84
2022/07/21 02:39:49;;;;;;;5.10;2.30;;;;;;;23.13;44.22;100086.28;4415889;32;34710;-84
2022/07/21 02:42:16;;;;;;;4.53;2.20;;;;;;;22.99;45.28;100092.09;4390455;32;32697;-84
2022/07/21 02:44:44;;;;;;;2.60;2.05;;;;;;;23.02;45.18;100090.94;4404364;32;34814;-83
2022/07/21 02:47:12;;;;;;;3.65;2.35;;;;;;;22.96;44.76;100078.91;4400684;32;33298;-83
2022/07/21 02:49:40;;;;;;;3.65;1.60;;;;;;;23.03;44.52;100088.13;4411516;32;35238;-83
2022/07/21 02:52:11;;;;;;;4.25;2.10;;;;;;;22.96;44.49;100086.97;4391095;32;32438;-84
2022/07/21 02:54:38;;;;;;;3.83;1.75;;;;;;;22.87;44.86;100088.63;4421818;32;33682;-84
2022/07/21 02:57:06;;;;;;;6.68;2.15;;;;;;;22.90;44.89;100088.37;4408368;32;33902;-85
2022/07/21 02:59:41;;;;;;;3.17;2.35;;;;;;;22.72;45.66;100090.84;4402807;32;32990;-84
2022/07/21 03:02:08;;;;;;;3.25;1.55;;;;;;;22.61;45.44;100090.12;4416752;32;32971;-84
2022/07/21 03:04:36;;;;;;;5.45;1.95;;;;;;;22.52;45.60;100094.50;4415162;32;33867;-84
2022/07/21 03:07:04;;;;;;;2.42;1.80;;;;;;;22.72;45.03;100090.00;4413912;32;34472;-84
2022/07/21 03:09:33;;;;;;;4.03;2.08;;;;;;;22.69;45.34;100095.66;4413363;32;33366;-84
2022/07/21 03:12:03;;;;;;;4.28;1.98;;;;;;;22.80;44.97;100086.62;4414435;32;33605;-83
2022/07/21 03:14:32;;;;;;;2.42;2.17;;;;;;;22.79;44.87;100095.69;4416543;32;33895;-83
2022/07/21 03:17:02;;;;;;;2.75;1.55;;;;;;;22.84;44.87;100090.75;4402958;32;32785;-83
2022/07/21 03:19:30;;;;;;;3.15;1.95;;;;;;;22.57;45.36;100092.22;4413749;32;33666;-83
2022/07/21 03:21:58;;;;;;;10.40;2.37;;;;;;;22.64;44.98;100088.00;4398052;32;34716;-83
2022/07/21 03:24:26;;;;;;;3.42;1.80;;;;;;;22.68;45.15;100093.97;4399594;32;32329;-83
2022/07/21 03:26:56;;;;;;;5.35;1.90;;;;;;;22.68;45.23;100085.88;4415961;32;33672;-83
2022/07/21 03:29:25;;;;;;;4.90;2.12;;;;;;;22.68;45.21;100089.41;4407730;32;33137;-83
2022/07/21 03:31:52;;;;;;;6.37;2.08;;;;;;;22.78;45.12;100099.38;4413241;32;32919;-83
2022/07/21 03:34:20;;;;;;;9.82;2.28;;;;;;;22.71;45.59;100091.84;4411720;32;33095;-83
2022/07/21 03:36:48;;;;;;;4.53;2.40;;;;;;;22.81;45.89;100091.03;4415598;32;33702;-83
2022/07/21 03:39:15;;;;;;;6.47;2.30;;;;;;;22.81;46.02;100089.19;4401633;32;33846;-83
2022/07/21 03:41:44;;;;;;;3.72;1.87;;;;;;;22.64;46.24;100093.38;4416963;32;32353;-83
2022/07/21 03:44:12;;;;;;;7.30;2.40;;;;;;;22.46;47.48;100089.66;4414024;32;33818;-84
2022/07/21 03:46:40;;;;;;;6.53;1.92;;;;;;;22.72;46.45;100087.31;4403063;32;35234;-84
2022/07/21 03:49:08;;;;;;;6.05;2.17;;;;;;;22.78;45.81;100083.22;4416210;32;34558;-83
2022/07/21 03:51:36;;;;;;;6.25;2.10;;;;;;;22.90;45.80;100087.53;4402022;32;32986;-83
2022/07/21 03:54:04;;;;;;;4.05;2.05;;;;;;;22.86;45.72;100097.69;4391519;32;33232;-83
2022/07/21 03:56:32;;;;;;;3.35;1.70;;;;;;;23.06;45.74;100098.59;4417363;32;33309;-83
2022/07/21 03:59:00;;;;;;;5.47;2.45;;;;;;;23.05;45.78;100107.69;4404263;32;34726;-83
2022/07/21 04:01:27;;;;;;;3.30;2.50;;;;;;;23.17;45.54;100101.19;4413671;32;33694;-83
2022/07/21 04:03:56;;;;;;;3.22;2.30;;;;;;;23.07;45.77;100110.22;4413368;32;33531;-83
2022/07/21 04:06:24;;;;;;;8.77;2.72;;;;;;;22.72;47.14;100107.00;4397706;32;34247;-83
2022/07/21 04:08:52;;;;;;;4.90;2.35;;;;;;;23.08;45.99;100104.72;4399890;32;33735;-83
2022/07/21 04:11:22;;;;;;;2.72;2.35;;;;;;;23.38;45.87;100100.19;4399139;32;33212;-83
2022/07/21 04:13:51;;;;;;;3.40;1.92;;;;;;;23.57;45.57;100104.72;4421555;32;33592;-83
2022/07/21 04:16:24;;;;;;;9.15;2.20;;;;;;;23.66;45.41;100104.75;4403140;32;33605;-84
2022/07/21 04:18:54;;;;;;;7.60;2.72;;;;;;;23.61;47.13;100104.31;4403569;32;34509;-84
2022/07/21 04:21:23;;;;;;;10.02;2.60;;;;;;;23.73;45.61;100105.84;4401283;32;33416;-83
2022/07/21 04:23:51;;;;;;;3.08;2.17;;;;;;;23.82;43.60;100103.31;4412814;32;34046;-83
2022/07/21 04:26:20;;;;;;;5.55;2.12;;;;;;;23.82;43.81;100100.59;4415013;32;33985;-83
2022/07/21 04:28:48;;;;;;;5.25;2.40;;;;;;;24.03;43.32;100103.97;4402946;32;33107;-82
2022/07/21 04:31:19;;;;;;;5.15;2.55;;;;;;;24.20;44.39;100108.59;4413940;32;33653;-83
2022/07/21 04:33:47;;;;;;;7.15;2.72;;;;;;;24.40;43.97;100100.47;4413029;32;33786;-82
2022/07/21 04:36:15;;;;;;;4.30;2.75;;;;;;;24.67;44.12;100108.56;4398670;32;34206;-83
2022/07/21 04:38:43;;;;;;;6.53;3.03;;;;;;;24.78;44.49;100105.69;4412765;32;34438;-83
2022/07/21 04:41:11;;;;;;;5.62;2.37;;;;;;;24.89;43.92;100111.87;4398657;32;33879;-83
2022/07/21 04:43:39;;;;;;;6.25;2.70;;;;;;;25.18;43.40;100107.16;4410483;32;33847;-82
2022/07/21 04:46:07;;;;;;;5.15;2.80;;;;;;;25.29;45.15;100111.47;4404109;32;35542;-82
2022/07/21 04:48:42;;;;;;;7.75;3.08;;;;;;;25.45;45.01;100108.09;4414026;32;34163;-83
2022/07/21 04:51:10;;;;;;;5.85;3.47;;;;;;;25.38;44.28;100109.72;4404876;32;33641;-83
2022/07/21 04:53:37;;;;;;;6.12;3.35;;;;;;;25.33;43.50;100104.75;4416939;32;33552;-82
2022/07/21 04:56:06;;;;;;;6.53;3.03;;;;;;;25.55;42.70;100103.47;4393077;32;34290;-82
2022/07/21 04:58:35;;;;;;;5.62;2.72;;;;;;;25.88;44.30;100110.00;4406229;32;33639;-82
2022/07/21 05:01:03;;;;;;;9.15;3.42;;;;;;;26.18;42.81;100105.13;4415197;32;32359;-83
2022/07/21 05:03:31;;;;;;;9.93;3.55;;;;;;;25.85;43.86;100109.47;4420785;32;33242;-83
2022/07/21 05:05:59;;;;;;;8.18;3.10;;;;;;;26.10;43.24;100102.34;4415677;32;33758;-84
2022/07/21 05:08:27;;;;;;;8.80;2.47;;;;;;;26.54;43.80;100105.84;4400032;32;34277;-83
2022/07/21 05:10:56;;;;;;;5.35;2.62;;;;;;;26.43;43.65;100103.41;4401083;32;33976;-83
2022/07/21 05:13:25;;;;;;;7.68;3.10;;;;;;;26.54;42.72;100103.16;4401014;32;33927;-82
2022/07/21 05:15:52;;;;;;;5.97;3.17;;;;;;;26.74;43.86;100104.56;4416772;32;34107;-83
2022/07/21 05:18:23;;;;;;;6.85;2.70;;;;;;;26.96;43.84;100104.97;4396696;32;33818;-83
2022/07/21 05:20:51;;;;;;;6.68;3.10;;;;;;;27.24;43.48;100105.56;4404512;32;34132;-82
2022/07/21 05:23:21;;;;;;;6.30;2.72;;;;;;;27.45;44.14;100099.69;4398606;32;33228;-83
2022/07/21 05:25:49;;;;;;;3.70;2.60;;;;;;;27.73;43.46;100108.37;4403441;32;32724;-82
2022/07/21 05:28:17;;;;;;;5.57;3.20;;;;;;;27.59;43.19;100109.84;4394528;32;33837;-83
2022/07/21 05:30:45;;;;;;;5.97;2.95;;;;;;;27.92;43.09;100105.28;4404494;32;33540;-83
2022/07/21 05:33:14;;;;;;;4.90;2.22;;;;;;;27.88;41.45;100105.81;4416507;32;33085;-85
2022/07/21 05:35:42;;;;;;;3.40;2.55;;;;;;;28.14;41.31;100108.28;4415783;32;34677;-83
2022/07/21 05:38:12;;;;;;;7.80;3.00;;;;;;;28.39;37.93;100115.41;4396314;32;34658;-83
2022/07/21 05:40:41;;;;;;;6.68;2.65;;;;;;;28.43;36.90;100124.03;4406142;32;32638;-83
2022/07/21 05:43:09;;;;;;;4.03;2.47;;;;;;;28.62;35.53;100125.50;4402784;32;34531;-83
2022/07/21 05:45:37;;;;;;;5.37;2.78;;;;;;;28.74;36.13;100129.53;4401742;32;32010;-84
2022/07/21 05:48:05;;;;;;;7.37;2.83;;;;;;;28.78;34.11;100125.44;4393900;32;33613;-83
2022/07/21 05:50:33;;;;;;;7.15;3.17;;;;;;;29.02;34.80;100128.06;4390577;32;31790;-83
2022/07/21 05:53:01;;;;;;;11.00;2.90;;;;;;;29.13;34.12;100124.09;4396272;32;32841;-83
2022/07/21 05:55:31;;;;;;;10.65;3.55;;;;;;;29.36;33.09;100117.81;4419610;32;34474;-84
2022/07/21 05:58:01;;;;;;;4.00;3.00;;;;;;;29.64;34.68;100127.16;4421711;32;34626;-83
2022/07/21 06:00:36;;;;;;;4.95;2.87;;;;;;;29.61;33.18;100116.62;4398366;32;32916;-83
2022/07/21 06:03:05;;;;;;;6.37;3.58;;;;;;;30.00;31.67;100116.44;4417380;32;33837;-83
2022/07/21 06:05:40;;;;;;;4.57;3.28;;;;;;;29.86;31.45;100114.53;4407555;32;34101;-83
2022/07/21 06:08:12;;;;;;;9.23;3.78;;;;;;;30.05;31.03;100115.88;4402645;32;33462;-83
2022/07/21 06:10:41;;;;;;;5.62;3.58;;;;;;;30.17;30.98;100116.31;4391389;32;31665;-83
2022/07/21 06:13:11;;;;;;;8.25;3.08;;;;;;;30.35;30.58;100114.94;4421664;32;32080;-82
2022/07/21 06:15:39;;;;;;;6.55;3.10;;;;;;;30.07;30.13;100109.25;4417258;32;34588;-83
2022/07/21 06:18:07;;;;;;;8.60;4.12;;;;;;;30.38;30.71;100118.28;4403311;32;33676;-83
2022/07/21 06:20:36;;;;;;;10.50;2.55;;;;;;;30.39;31.14;100120.84;4415003;32;32779;-83
2022/07/21 06:23:11;;;;;;;8.20;3.42;;;;;;;30.44;30.14;100118.41;4400609;32;33587;-83
2022/07/21 06:25:42;;;;;;;6.18;3.90;;;;;;;30.58;30.37;100116.72;4402258;32;32947;-83
2022/07/21 06:28:13;;;;;;;6.35;3.00;;;;;;;31.00;29.13;100118.75;4407927;32;32676;-83
2022/07/21 06:30:43;;;;;;;7.12;3.08;;;;;;;30.90;29.45;100120.91;4414634;32;33076;-83
2022/07/21 06:33:23;;;;;;;3.62;3.05;;;;;;;31.05;29.44;100116.28;4399657;32;35637;-83
2022/07/21 06:35:51;;;;;;;4.80;2.97;;;;;;;31.23;30.43;100112.28;4394537;32;33929;-84
2022/07/21 06:38:19;;;;;;;9.70;3.00;;;;;;;31.74;29.41;100110.28;4403259;32;34563;-83
2022/07/21 06:40:48;;;;;;;5.62;3.45;;;;;;;31.56;28.02;100108.00;4400043;32;33712;-83
2022/07/21 06:43:17;;;;;;;6.55;3.05;;;;;;;31.83;28.17;100103.66;4403512;32;33587;-84
2022/07/21 06:45:56;;;;;;;13.50;3.53;;;;;;;31.74;27.55;100098.53;4412905;32;33332;-83
2022/07/21 06:48:26;;;;;;;7.65;3.42;;;;;;;31.91;29.13;100104.59;4415304;32;34034;-83
2022/07/21 06:50:56;;;;;;;6.40;2.83;;;;;;;31.79;27.79;100112.41;4414629;32;33186;-83
2022/07/21 06:53:27;;;;;;;7.18;3.28;;;;;;;31.27;28.48;100106.25;4407838;32;32681;-83
2022/07/21 06:55:59;;;;;;;8.23;4.20;;;;;;;31.64;28.04;100104.31;4414003;32;33662;-84
2022/07/21 06:58:34;;;;;;;5.28;3.00;;;;;;;31.46;27.90;100103.94;4399821;32;33114;-83
2022/07/21 07:01:07;;;;;;;8.65;3.80;;;;;;;31.83;27.94;100102.84;4407816;32;33313;-83
2022/07/21 07:03:37;;;;;;;6.57;3.12;;;;;;;31.78;27.54;100095.19;4402496;32;33067;-84
2022/07/21 07:06:07;;;;;;;7.82;3.67;;;;;;;32.29;26.83;100103.16;4403921;32;34039;-83
2022/07/21 07:08:38;;;;;;;5.57;2.87;;;;;;;32.21;27.13;100106.06;4415282;32;34420;-84
2022/07/21 07:11:11;;;;;;;11.63;3.37;;;;;;;32.49;27.28;100113.41;4391949;32;33327;-83
2022/07/21 07:13:41;;;;;;;7.60;3.42;;;;;;;32.37;26.54;100104.91;4413535;32;32873;-84
2022/07/21 07:16:29;;;;;;;8.25;2.70;;;;;;;32.68;26.44;100112.66;4401439;32;33184;-83
2022/07/21 07:19:02;;;;;;;9.50;3.10;;;;;;;32.79;25.59;100106.59;4396197;32;34368;-84
2022/07/21 07:21:32;;;;;;;5.82;3.45;;;;;;;32.08;27.38;100105.94;4403836;32;32974;-83
2022/07/21 07:24:06;;;;;;;4.55;3.00;;;;;;;32.27;27.34;100105.25;4414282;32;34707;-84
2022/07/21 07:26:43;;;;;;;5.80;3.35;;;;;;;32.66;27.16;100106.53;4417551;32;33604;-83
2022/07/21 07:29:13;;;;;;;7.60;3.50;;;;;;;32.75;26.08;100108.03;4418963;32;33177;-83
2022/07/21 07:31:42;;;;;;;8.93;3.53;;;;;;;33.04;26.13;100111.53;4407132;32;32738;-83
2022/07/21 07:34:11;;;;;;;5.85;2.85;;;;;;;32.51;26.69;100100.34;4403756;32;33340;-83
2022/07/21 07:36:41;;;;;;;5.25;3.45;;;;;;;33.01;26.20;100098.28;4403566;32;32164;-83
2022/07/21 07:39:11;;;;;;;3.70;2.92;;;;;;;32.92;26.40;100102.25;4385816;32;32326;-84
2022/07/21 07:41:40;;;;;;;8.25;2.92;;;;;;;33.24;27.24;100090.56;4397633;32;33466;-83
2022/07/21 07:44:10;;;;;;;7.75;3.25;;;;;;;33.69;28.13;100088.09;4398176;32;33168;-83
2022/07/21 07:49:15;;;;;;;9.25;4.00;;;;;;;33.95;26.83;100079.06;4401076;32;33702;-84
2022/07/21 07:51:50;;;;;;;4.97;2.70;;;;;;;34.15;24.60;100070.81;4412561;32;34005;-84
2022/07/21 07:54:19;;;;;;;8.13;3.08;;;;;;;34.04;25.19;100085.16;4391890;32;32809;-84
2022/07/21 07:56:49;;;;;;;6.40;3.00;;;;;;;33.99;24.50;100079.47;4411420;32;34253;-83
2022/07/21 07:59:19;;;;;;;7.65;3.25;;;;;;;34.47;24.17;100070.94;4387731;32;33235;-84
2022/07/21 08:01:54;;;;;;;10.35;3.87;;;;;;;34.74;23.93;100069.78;4399322;32;33406;-84
2022/07/21 08:04:22;;;;;;;12.05;3.50;;;;;;;34.52;23.54;100074.75;4412733;32;33157;-84
2022/07/21 08:06:50;;;;;;;9.27;3.47;;;;;;;34.52;23.38;100084.87;4416017;32;33884;-84
2022/07/21 08:09:19;;;;;;;5.80;3.33;;;;;;;34.67;24.50;100082.72;4414672;32;34201;-84
2022/07/21 08:11:54;;;;;;;4.60;3.12;;;;;;;34.37;24.41;100080.47;4394757;32;31863;-84
2022/07/21 08:14:29;;;;;;;4.68;2.97;;;;;;;34.64;24.38;100075.75;4415229;32;32159;-84
2022/07/21 08:16:58;;;;;;;8.80;3.12;;;;;;;35.03;24.47;100071.13;4417477;32;33581;-84
2022/07/21 08:19:31;;;;;;;;;;;;;;;35.24;23.04;100080.13;4410307;32;34427;-84
2022/07/21 08:22:01;;;;;;;4.37;3.15;;;;;;;34.80;23.58;100079.91;4410022;32;32284;-84
2022/07/21 08:24:45;;;;;;;7.65;3.30;;;;;;;35.30;22.27;100071.81;4399568;32;32768;-84
2022/07/21 08:27:14;;;;;;;9.00;3.60;;;;;;;35.11;24.31;100070.06;4409283;32;34177;-85
2022/07/21 08:29:46;;;;;;;5.97;2.85;;;;;;;35.51;23.15;100078.03;4389352;32;34185;-85
2022/07/21 08:32:17;;;;;;;5.75;3.65;;;;;;;35.65;23.68;100071.37;4388283;32;32286;-85
2022/07/21 08:34:47;;;;;;;7.30;3.72;;;;;;;35.91;22.13;100068.38;4399891;32;33214;-85
2022/07/21 08:37:15;;;;;;;5.65;3.65;;;;;;;36.04;22.25;100059.22;4403229;32;34848;-85
2022/07/21 08:39:48;;;;;;;4.60;3.20;;;;;;;36.32;22.61;100061.44;4414142;32;33779;-85
2022/07/21 08:42:18;;;;;;;4.97;3.22;;;;;;;36.23;22.03;100057.31;4418101;32;33253;-85
2022/07/21 08:44:48;;;;;;;6.80;2.97;;;;;;;36.40;22.41;100057.53;4401487;32;32595;-85
2022/07/21 08:47:27;;;;;;;6.22;3.22;;;;;;;36.47;21.44;100052.00;4415145;32;33375;-85
2022/07/21 08:49:57;;;;;;;5.72;2.90;;;;;;;36.03;21.28;100056.66;4413350;32;34237;-85
2022/07/21 08:52:26;;;;;;;6.80;3.25;;;;;;;36.12;21.34;100044.31;4400571;32;33652;-85
2022/07/21 08:54:59;;;;;;;7.72;3.70;;;;;;;36.58;22.92;100053.97;4406456;32;33359;-85
2022/07/21 08:57:27;;;;;;;3.47;3.03;;;;;;;36.63;21.85;100052.19;4403686;32;33755;-85
2022/07/21 09:00:00;;;;;;;10.18;3.37;;;;;;;36.45;21.48;100048.62;4405956;32;32276;-85
2022/07/21 09:02:40;;;;;;;7.60;3.50;;;;;;;36.48;20.38;100048.16;4382101;32;33251;-85
2022/07/21 09:05:20;;;;;;;8.70;3.53;;;;;;;36.36;21.73;100050.81;4407014;32;32316;-85
2022/07/21 09:07:57;;;;;;;6.03;2.78;;;;;;;36.30;21.42;100043.47;4407247;32;33285;-85
2022/07/21 09:10:28;;;;;;;11.80;4.20;;;;;;;36.49;21.02;100049.84;4415453;32;33751;-85
2022/07/21 09:13:04;;;;;;;5.00;3.42;;;;;;;36.48;21.13;100048.16;4392068;32;32398;-86
2022/07/21 09:15:39;;;;;;;5.32;3.37;;;;;;;36.43;20.78;100046.12;4394292;32;32890;-85
2022/07/21 09:18:13;;;;;;;11.38;3.62;;;;;;;36.34;22.02;100042.78;4390533;32;34506;-85
2022/07/21 09:20:53;;;;;;;8.15;3.70;;;;;;;36.32;21.36;100038.59;4394840;32;34532;-85
2022/07/21 09:23:25;;;;;;;5.03;3.55;;;;;;;35.64;22.09;100042.22;4396824;32;33943;-84
2022/07/21 09:25:56;;;;;;;13.07;3.45;;;;;;;35.40;22.20;100035.62;4410963;32;33254;-84
2022/07/21 09:28:29;;;;;;;6.53;4.10;;;;;;;36.47;22.38;100036.34;4399343;32;32822;-84
2022/07/21 09:31:01;;;;;;;3.78;2.83;;;;;;;36.72;21.71;100029.88;4388117;32;34175;-84
2022/07/21 09:33:32;;;;;;;3.90;3.35;;;;;;;36.79;20.68;100028.69;4410476;32;32574;-84
2022/07/21 09:36:12;;;;;;;4.68;3.12;;;;;;;36.52;19.45;100027.41;4390559;32;33172;-84
2022/07/21 09:41:34;;;;;;;7.82;3.10;;;;;;;36.55;21.20;100018.66;4403092;32;33977;-84
2022/07/21 09:44:02;;;;;;;7.28;3.05;;;;;;;37.17;20.24;100019.28;4405067;32;33457;-84
2022/07/21 09:46:31;;;;;;;5.12;3.70;;;;;;;36.60;20.94;100016.06;4412197;32;34443;-84
2022/07/21 09:49:02;;;;;;;3.50;3.03;;;;;;;37.47;20.69;100016.50;4397873;32;34773;-84
2022/07/21 09:51:54;;;;;;;6.97;2.63;;;;;;;37.63;18.49;100009.44;4416630;32;32798;-84
2022/07/21 09:54:22;;;;;;;3.12;2.80;;;;;;;37.18;19.46;99998.94;4400647;32;31716;-84
2022/07/21 09:56:54;;;;;;;4.28;3.50;;;;;;;37.57;19.68;100002.97;4411752;32;33435;-84
2022/07/21 09:59:25;;;;;;;3.92;3.58;;;;;;;38.05;19.43;99993.63;4411208;32;33461;-84
2022/07/21 10:02:27;;;;;;;6.03;2.90;;;;;;;37.90;19.21;100002.38;4386327;32;34926;-84
2022/07/21 10:05:06;;;;;;;5.45;2.97;;;;;;;37.73;19.36;99993.13;4373967;32;33030;-84
2022/07/21 10:07:40;;;;;;;7.40;3.10;;;;;;;37.83;19.23;99996.13;4398670;32;32950;-84
2022/07/21 10:10:14;;;;;;;7.35;3.08;;;;;;;37.99;18.99;99988.25;4411308;32;34756;-83
2022/07/21 10:12:42;;;;;;;8.02;3.12;;;;;;;38.23;18.25;99989.88;4405437;32;33106;-84
2022/07/21 10:15:13;;;;;;;4.22;3.17;;;;;;;37.86;18.39;99981.91;4398988;32;32707;-83
2022/07/21 10:17:46;;;;;;;5.75;3.03;;;;;;;38.02;19.06;99982.22;4390796;32;35360;-84
2022/07/21 10:20:28;;;;;;;7.12;3.12;;;;;;;38.12;18.97;99982.44;4391700;32;34428;-84
2022/07/21 10:23:14;;;;;;;7.53;3.20;;;;;;;38.73;19.15;99972.66;4398016;32;33532;-83
2022/07/21 10:25:49;;;;;;;6.28;3.67;;;;;;;38.97;18.92;99975.31;4413296;32;33582;-83
2022/07/21 10:28:27;;;;;;;6.32;2.65;;;;;;;39.20;17.65;99972.44;4391022;32;32622;-83
2022/07/21 10:31:15;;;;;;;5.85;3.25;;;;;;;38.78;19.93;99964.50;4403734;32;33676;-83
2022/07/21 10:33:44;;;;;;;4.80;3.00;;;;;;;39.47;17.60;99969.00;4388403;32;33473;-83
2022/07/21 10:36:26;;;;;;;8.48;3.55;;;;;;;39.58;17.03;99962.53;4412462;32;34842;-84
2022/07/21 10:39:06;;;;;;;4.20;3.25;;;;;;;39.32;17.60;99964.09;4413220;32;33526;-83
2022/07/21 10:41:40;;;;;;;6.43;3.08;;;;;;;38.95;17.63;99958.19;4411596;32;32847;-83
2022/07/21 10:44:27;;;;;;;6.28;3.08;;;;;;;39.13;17.34;99956.03;4411853;32;34117;-83
2022/07/21 10:49:57;;;;;;;7.12;3.70;;;;;;;39.29;19.37;99954.38;4404317;32;32926;-83
2022/07/21 10:52:41;;;;;;;7.32;4.05;;;;;;;39.13;19.07;99949.66;4396347;32;34215;-83
2022/07/21 10:55:24;;;;;;;9.25;3.72;;;;;;;40.05;16.64;99935.31;4414733;32;32732;-83
2022/07/21 10:58:15;;;;;;;5.28;3.33;;;;;;;39.54;17.27;99933.75;4416963;32;33675;-83
2022/07/21 11:00:49;;;;;;;5.87;3.53;;;;;;;39.25;17.34;99931.09;4415954;32;33294;-83
2022/07/21 11:03:31;;;;;;;7.22;3.12;;;;;;;38.94;18.12;99940.78;4416359;32;34156;-83
2022/07/21 11:09:03;;;;;;;6.37;3.00;;;;;;;39.18;17.76;99927.66;4401532;32;33590;-83
2022/07/21 11:14:20;;;;;;;4.72;2.53;;;;;;;39.23;16.77;99927.75;4401199;32;33164;-83
2022/07/21 11:16:56;;;;;;;4.78;2.10;;;;;;;39.38;17.32;99930.75;4399155;32;33378;-83
2022/07/21 11:19:50;;;;;;;3.92;2.90;;;;;;;39.68;15.46;99916.56;4412101;32;33675;-83
2022/07/21 11:22:20;;;;;;;3.15;2.28;;;;;;;39.64;15.86;99915.41;4399734;32;32722;-84
2022/07/21 11:25:00;;;;;;;3.92;2.53;;;;;;;38.93;17.35;99915.13;4398864;32;32384;-84
2022/07/21 11:27:39;;;;;;;4.05;2.78;;;;;;;38.86;18.18;99917.19;4401913;32;33616;-84
2022/07/21 11:30:09;;;;;;;6.60;2.37;;;;;;;39.11;17.13;99907.66;4410179;32;32999;-83
2022/07/21 11:32:37;;;;;;;3.85;2.22;;;;;;;38.87;16.50;99906.97;4392417;32;33625;-84
2022/07/21 11:35:07;;;;;;;5.65;2.78;;;;;;;39.35;17.68;99909.16;4414540;32;32998;-84
2022/07/21 11:37:40;;;;;;;4.78;2.97;;;;;;;39.62;15.91;99897.38;4415358;32;34542;-84
2022/07/21 11:40:18;;;;;;;4.15;3.22;;;;;;;39.54;16.53;99893.13;4414790;32;33633;-84
2022/07/21 11:42:50;;;;;;;7.18;3.37;;;;;;;39.71;17.08;99893.13;4404414;32;34707;-84
2022/07/21 11:45:23;;;;;;;4.75;3.15;;;;;;;40.12;16.91;99897.28;4419620;32;33049;-84
2022/07/21 11:47:56;;;;;;;6.70;3.30;;;;;;;40.00;21.99;99892.94;4402642;32;34067;-84
2022/07/21 11:50:30;;;;;;;5.87;2.12;;;;;;;40.58;16.61;99885.88;4407227;32;34127;-84
2022/07/21 11:52:59;;;;;;;7.12;2.25;;;;;;;39.97;17.35;99885.13;4399380;32;33583;-83
2022/07/21 11:55:34;;;;;;;2.95;2.00;;;;;;;40.36;15.25;99875.69;4414105;32;33969;-84
2022/07/21 11:58:03;;;;;;;5.78;2.67;;;;;;;40.59;15.82;99871.75;4414675;32;33397;-85
2022/07/21 12:00:31;;;;;;;2.72;1.83;;;;;;;41.10;15.27;99872.19;4403871;32;32923;-84